X_preSS Matterhorn — PBHI — position and weather

sailwx.info

Track history (hours):
 
Tides and Currents Weather Stations Pressure Air Temp Water Temp Dewpoint Dewpoint Depression Visibility Wind Speed Wind Dir Waves Ship Positions

X_preSS Matterhorn

Last reported at 2017-Nov-19 23:47 UTC. Time now 2017-Nov-22 03:55 UTC.
Position N 53°32' E 004°51'.

Length 134 m; draft 6.9 m.

Type: Ship (hazmat cat A). MMSI: 244597000.

Date/timePositionNaut miles runAvg speedWind from/ knotsBaromVisibWave heightAir tempDewpointWater temp
2017-Nov-19 23:47N 53°32' E 004°51'415.4
2017-Nov-19 23:30N 53°33' E 004°58'815.2
2017-Nov-19 23:00N 53°36' E 005°10'10413.1
2017-Nov-19 15:04N 54°01' E 008°01'112.4
2017-Nov-19 15:00N 54°01' E 008°02'714.4
2017-Nov-19 14:30N 54°00' E 008°15'816.0
2017-Nov-19 14:00N 53°59' E 008°28'714.0
2017-Nov-19 13:30N 53°56' E 008°39'612.0
2017-Nov-19 13:00N 53°52' E 008°45'612.3
2017-Nov-19 12:30N 53°51' E 008°55'612.2
2017-Nov-19 12:00N 53°52' E 009°05'3 5.1
2017-Nov-19 11:31N 53°54' E 009°09'0 0.0
2017-Nov-19 11:00N 53°54' E 009°09'2 4.4
2017-Nov-19 10:30N 53°55' E 009°12'4 8.4
2017-Nov-19 10:00N 53°58' E 009°16'4 8.5
2017-Nov-19 09:31N 54°02' E 009°18'5 8.7
2017-Nov-19 08:59N 54°07' E 009°20'4 8.0
2017-Nov-19 08:30N 54°10' E 009°24'4 8.7
2017-Nov-19 08:00N 54°11' E 009°31'2 4.7
2017-Nov-19 07:30N 54°13' E 009°35'3 6.3
2017-Nov-19 07:00N 54°15' E 009°37'4 7.7
2017-Nov-19 06:30N 54°18' E 009°42'4 8.0
2017-Nov-19 06:00N 54°21' E 009°46'4 7.7
2017-Nov-19 05:30N 54°21' E 009°53'23 5.5
2017-Nov-19 01:15N 54°33' E 010°28'414.9
2017-Nov-19 01:00N 54°34' E 010°34'714.8
2017-Nov-19 00:30N 54°35' E 010°47'714.7
2017-Nov-19 00:00N 54°36' E 010°60'714.1
2017-Nov-18 23:31N 54°35' E 011°12'714.7
2017-Nov-18 23:01N 54°32' E 011°23'714.6
2017-Nov-18 22:30N 54°29' E 011°35'814.4
2017-Nov-18 21:59N 54°27' E 011°47'714.4
2017-Nov-18 21:30N 54°27' E 011°59'713.9
2017-Nov-18 21:00N 54°27' E 012°11'713.0
2017-Nov-18 20:30N 54°33' E 012°18'20214.0
2017-Nov-18 06:04N 54°55' E 018°05'113.9
2017-Nov-18 06:00N 54°55' E 018°07'714.0
2017-Nov-18 05:30N 54°56' E 018°19'713.8
2017-Nov-18 05:00N 54°53' E 018°30'714.9
2017-Nov-18 04:30N 54°48' E 018°40'815.0
2017-Nov-18 04:01N 54°44' E 018°50'612.7
2017-Nov-18 03:31N 54°38' E 018°56'815.6
2017-Nov-18 03:00N 54°32' E 018°49'714.9
2017-Nov-18 02:30N 54°32' E 018°36'3 5.8
2017-Nov-18 01:58N 54°33' E 018°31'0 0.0
2017-Nov-18 01:28N 54°33' E 018°31'0 0.0
2017-Nov-18 00:58N 54°33' E 018°31'0 0.0
2017-Nov-18 00:25N 54°33' E 018°31'0 0.0
2017-Nov-17 23:58N 54°33' E 018°31'0 0.0
2017-Nov-17 23:28N 54°33' E 018°31'0 0.0
2017-Nov-17 22:58N 54°33' E 018°31'0 0.0
2017-Nov-17 22:28N 54°33' E 018°31'0 0.0
2017-Nov-17 21:58N 54°33' E 018°31'0 0.1
2017-Nov-17 21:28N 54°33' E 018°31'0 0.0
2017-Nov-17 20:58N 54°33' E 018°31'0 0.0
2017-Nov-17 20:28N 54°33' E 018°31'0 0.0
2017-Nov-17 19:58N 54°33' E 018°31'0 0.0
2017-Nov-17 19:28N 54°33' E 018°31'0 0.0
2017-Nov-17 18:58N 54°33' E 018°31'0 0.0
2017-Nov-17 18:28N 54°33' E 018°31'0 0.0
2017-Nov-17 17:58N 54°33' E 018°31'0 0.0
2017-Nov-17 17:25N 54°33' E 018°31'0 0.0
2017-Nov-17 16:58N 54°33' E 018°31'0 0.0
2017-Nov-17 16:28N 54°33' E 018°31'0 0.0
2017-Nov-17 15:58N 54°33' E 018°31'0 0.0
2017-Nov-17 15:28N 54°33' E 018°31'0 0.0
2017-Nov-17 14:58N 54°33' E 018°31'0 0.0
2017-Nov-17 14:28N 54°33' E 018°31'0 0.0
2017-Nov-17 13:58N 54°33' E 018°31'0 0.0
2017-Nov-17 13:30N 54°33' E 018°31'0 0.0
2017-Nov-17 13:00N 54°33' E 018°31'0 0.0
2017-Nov-17 12:30N 54°33' E 018°31'0 0.0
2017-Nov-17 12:00N 54°33' E 018°31'0 0.0
2017-Nov-17 11:30N 54°33' E 018°31'0 0.0
2017-Nov-17 11:00N 54°33' E 018°31'0 0.0
2017-Nov-17 10:30N 54°33' E 018°31'0 0.0
2017-Nov-17 10:00N 54°33' E 018°31'0 0.0
2017-Nov-17 09:30N 54°33' E 018°31'0 0.0
2017-Nov-17 08:57N 54°33' E 018°31'0 0.0
2017-Nov-17 08:30N 54°33' E 018°31'0 0.0
2017-Nov-17 08:00N 54°33' E 018°31'0 0.0
2017-Nov-16 23:45N 54°33' E 018°31'0 0.0
2017-Nov-16 23:30N 54°33' E 018°31'0 0.0
2017-Nov-16 23:01N 54°33' E 018°31'1 1.9
2017-Nov-16 22:30N 54°32' E 018°32'510.6
2017-Nov-16 22:00N 54°32' E 018°41'714.7
2017-Nov-16 21:30N 54°35' E 018°53'713.2
2017-Nov-16 21:01N 54°42' E 018°53'816.7
2017-Nov-16 20:31N 54°47' E 018°42'816.6
2017-Nov-16 20:01N 54°52' E 018°30'816.3
2017-Nov-16 19:30N 54°54' E 018°16'11316.7
2017-Nov-16 12:43N 54°39' E 015°02'516.6
2017-Nov-16 12:24N 54°38' E 014°52'616.8
2017-Nov-16 12:01N 54°37' E 014°41'916.7
2017-Nov-16 11:27N 54°36' E 014°25'716.3
2017-Nov-16 10:59N 54°38' E 014°13'2016.5
2017-Nov-16 09:45N 54°49' E 013°44'616.8
2017-Nov-16 09:25N 54°53' E 013°37'3116.5
2017-Nov-16 07:33N 55°13' E 012°56'116.7
2017-Nov-16 07:30N 55°13' E 012°55'714.9
2017-Nov-16 07:01N 55°17' E 012°43'5 9.7
2017-Nov-16 06:30N 55°21' E 012°39'611.6
2017-Nov-16 06:00N 55°27' E 012°41'510.9
2017-Nov-16 05:31N 55°32' E 012°42'510.0
2017-Nov-16 05:00N 55°37' E 012°42'612.3
2017-Nov-16 04:30N 55°44' E 012°41'713.8
2017-Nov-16 04:00N 55°50' E 012°41'713.9
2017-Nov-16 03:30N 55°57' E 012°39'5 9.2
2017-Nov-16 03:00N 56°02' E 012°41'0 0.3
2017-Nov-16 02:30N 56°02' E 012°42'0 0.0
2017-Nov-16 02:00N 56°02' E 012°42'0 0.0
2017-Nov-16 01:30N 56°02' E 012°42'0 0.0
2017-Nov-16 01:00N 56°02' E 012°42'0 0.0
2017-Nov-16 00:30N 56°02' E 012°41'0 0.0
2017-Nov-16 00:00N 56°02' E 012°42'0 0.0
2017-Nov-15 23:30N 56°02' E 012°42'0 0.0
2017-Nov-15 23:00N 56°02' E 012°42'0 0.0
2017-Nov-15 22:30N 56°02' E 012°42'0 0.0
2017-Nov-15 22:00N 56°02' E 012°42'0 0.0
2017-Nov-15 21:30N 56°02' E 012°42'0 0.0
2017-Nov-15 21:00N 56°02' E 012°42'0 0.0
2017-Nov-15 20:30N 56°02' E 012°42'0 0.0
2017-Nov-15 20:00N 56°02' E 012°42'0 0.0
2017-Nov-15 19:30N 56°02' E 012°42'0 0.0
2017-Nov-15 19:00N 56°02' E 012°41'0 0.0
2017-Nov-15 18:30N 56°02' E 012°42'0 0.0
2017-Nov-15 18:00N 56°02' E 012°41'0 0.0
2017-Nov-15 17:30N 56°02' E 012°42'0 0.0
2017-Nov-15 17:00N 56°02' E 012°42'0 0.0
2017-Nov-15 16:30N 56°02' E 012°41'0 0.0
2017-Nov-15 16:00N 56°02' E 012°42'0 0.0
2017-Nov-15 15:30N 56°02' E 012°42'0 0.0
2017-Nov-15 15:00N 56°02' E 012°42'0 0.0
2017-Nov-15 14:30N 56°02' E 012°42'0 0.0
2017-Nov-15 14:00N 56°02' E 012°42'0 0.0
2017-Nov-15 13:30N 56°02' E 012°42'0 0.0
2017-Nov-15 13:00N 56°02' E 012°41'0 0.0
2017-Nov-15 12:30N 56°02' E 012°42'0 0.0
2017-Nov-15 12:00N 56°02' E 012°42'0 0.0
2017-Nov-15 11:30N 56°02' E 012°41'0 0.0
2017-Nov-15 11:00N 56°02' E 012°42'0 0.0
2017-Nov-15 10:30N 56°02' E 012°42'0 0.0
2017-Nov-15 10:00N 56°02' E 012°42'0 0.0
2017-Nov-15 09:30N 56°02' E 012°42'0 0.0
2017-Nov-15 09:00N 56°02' E 012°42'0 0.0
2017-Nov-15 08:30N 56°02' E 012°42'0 0.0
2017-Nov-15 08:00N 56°02' E 012°42'0 0.0
2017-Nov-15 07:30N 56°02' E 012°42'0 0.0
2017-Nov-15 07:00N 56°02' E 012°42'0 0.0
2017-Nov-15 06:29N 56°02' E 012°42'0 1.0
2017-Nov-15 06:01N 56°01' E 012°42'3 6.2
2017-Nov-15 05:30N 56°04' E 012°38'714.2
2017-Nov-15 05:00N 56°08' E 012°28'7215.6
2017-Nov-15 00:23N 57°14' E 011°33'616.2
2017-Nov-15 00:00N 57°19' E 011°29'816.4
2017-Nov-14 23:30N 57°27' E 011°23'816.2
2017-Nov-14 23:00N 57°33' E 011°13'916.9
2017-Nov-14 22:29N 57°39' E 011°01'816.9
2017-Nov-14 22:00N 57°45' E 010°50'715.0
2017-Nov-14 21:30N 57°47' E 010°37'815.6
2017-Nov-14 21:00N 57°45' E 010°23'816.5
2017-Nov-14 20:30N 57°41' E 010°08'17415.8
2017-Nov-14 09:31N 55°31' E 006°39'015.3
2017-Nov-14 09:30N 55°31' E 006°39'1215.5
2017-Nov-14 08:44N 55°21' E 006°28'15015.7
2017-Nov-13 23:10N 53°07' E 004°31'316.0
2017-Nov-13 23:00N 53°05' E 004°29'815.9
2017-Nov-13 22:30N 52°58' E 004°22'815.6
2017-Nov-13 22:00N 52°52' E 004°15'167 8.4
2017-Nov-13 02:01N 51°28' E 000°20'0 0.0
2017-Nov-13 01:31N 51°28' E 000°20'0 0.0
2017-Nov-13 01:01N 51°28' E 000°20'0 0.0
2017-Nov-13 00:31N 51°28' E 000°20'0 0.0
2017-Nov-13 00:01N 51°28' E 000°20'0 0.0
2017-Nov-12 23:31N 51°28' E 000°20'0 0.0
2017-Nov-12 23:01N 51°28' E 000°20'0 0.1
2017-Nov-12 22:31N 51°28' E 000°20'0 0.1
2017-Nov-12 22:01N 51°28' E 000°20'0 0.0
2017-Nov-12 21:31N 51°28' E 000°20'0 0.0
2017-Nov-12 21:01N 51°28' E 000°20'0 0.0
2017-Nov-12 20:31N 51°28' E 000°20'22 1.7
2017-Nov-12 07:51N 51°29' E 000°55'3 7.8
2017-Nov-12 07:31N 51°29' E 000°59'611.2
2017-Nov-12 06:59N 51°29' E 001°09'611.7
2017-Nov-12 06:29N 51°29' E 001°18'612.0
2017-Nov-12 06:01N 51°28' E 001°27'510.8
2017-Nov-12 05:31N 51°24' E 001°33'510.4
2017-Nov-12 05:01N 51°19' E 001°36'611.0
2017-Nov-12 04:30N 51°13' E 001°38'510.1
2017-Nov-12 04:00N 51°09' E 001°41'510.3
2017-Nov-12 03:31N 51°05' E 001°37'611.2
2017-Nov-12 03:00N 51°00' E 001°32'610.9
2017-Nov-12 02:30N 50°56' E 001°26'510.7
2017-Nov-12 02:00N 50°51' E 001°24'610.8
2017-Nov-12 01:26N 50°45' E 001°22'4411.0
2017-Nov-11 21:29N 50°24' E 000°21'612.1
2017-Nov-11 21:00N 50°23' E 000°13'612.3
2017-Nov-11 20:30N 50°21' E 000°03'613.1
2017-Nov-11 20:01N 50°19' W 000°07'2613.7
2017-Nov-11 18:05N 50°12' W 000°46'214.2
2017-Nov-11 17:56N 50°11' W 000°49'614.6
2017-Nov-11 17:30N 50°09' W 000°59'714.8
2017-Nov-11 17:01N 50°07' W 001°10'815.5
2017-Nov-11 16:30N 50°05' W 001°21'816.1
2017-Nov-11 16:00N 50°02' W 001°33'816.6
2017-Nov-11 15:31N 50°00' W 001°46'917.1
2017-Nov-11 15:01N 49°58' W 001°58'917.4
2017-Nov-11 14:30N 49°56' W 002°12'2417.1
2017-Nov-11 13:05N 49°49' W 002°48'316.5
2017-Nov-11 12:55N 49°48' W 002°52'1016.2
2017-Nov-11 12:18N 49°43' W 003°04'7515.7
2017-Nov-11 07:32N 49°05' W 004°44'115.0
2017-Nov-11 07:26N 49°04' W 004°46'1315.2
2017-Nov-11 06:34N 48°57' W 005°04'315.1
2017-Nov-11 06:24N 48°56' W 005°07'615.0
2017-Nov-11 05:59N 48°53' W 005°15'714.9
2017-Nov-11 05:30N 48°49' W 005°25'714.7
2017-Nov-11 05:00N 48°46' W 005°34'1113.9
2017-Nov-11 04:14N 48°36' W 005°42'512.8
2017-Nov-11 03:51N 48°31' W 005°42'614.2
2017-Nov-11 03:27N 48°26' W 005°39'713.8
2017-Nov-11 02:57N 48°20' W 005°35'713.8
2017-Nov-11 02:29N 48°14' W 005°32'613.5
2017-Nov-11 02:00N 48°08' W 005°28'713.6
2017-Nov-11 01:30N 48°01' W 005°25'713.7
2017-Nov-11 00:59N 47°55' W 005°21'713.7
2017-Nov-11 00:30N 47°49' W 005°17'714.0
2017-Nov-11 00:00N 47°42' W 005°13'713.9
2017-Nov-10 23:30N 47°35' W 005°11'714.0
2017-Nov-10 23:00N 47°29' W 005°07'21414.3
2017-Nov-10 08:03N 44°07' W 003°27'114.8
2017-Nov-10 08:00N 44°06' W 003°27'814.9
2017-Nov-10 07:29N 43°59' W 003°23'715.1
2017-Nov-10 07:00N 43°52' W 003°19'714.9
2017-Nov-10 06:30N 43°45' W 003°16'714.9
2017-Nov-10 06:00N 43°38' W 003°12'715.0
2017-Nov-10 05:30N 43°31' W 003°09'815.1
2017-Nov-10 05:01N 43°24' W 003°06'4 7.6
2017-Nov-10 04:29N 43°21' W 003°03'0 0.0
2017-Nov-10 03:59N 43°21' W 003°03'0 0.0
2017-Nov-10 03:29N 43°21' W 003°03'0 0.0
2017-Nov-10 02:59N 43°21' W 003°03'0 0.0
2017-Nov-10 02:29N 43°21' W 003°03'0 0.0
2017-Nov-10 01:59N 43°21' W 003°03'0 0.0
2017-Nov-10 01:29N 43°21' W 003°03'0 0.0
2017-Nov-10 00:59N 43°21' W 003°03'0 0.0
2017-Nov-10 00:26N 43°21' W 003°03'0 0.0
2017-Nov-09 23:59N 43°21' W 003°03'  
Track history (hours):
 
Tides and Currents Weather Stations Pressure Air Temp Water Temp Dewpoint Dewpoint Depression Visibility Wind Speed Wind Dir Waves Ship Positions

X_preSS Matterhorn

Last reported at 2017-Nov-19 23:47 UTC. Time now 2017-Nov-22 03:55 UTC.
Position N 53°32' E 004°51'.

Length 134 m; draft 6.9 m.

Type: Ship (hazmat cat A). MMSI: 244597000.

Date/timePositionNaut miles runAvg speedWind from/ knotsBaromVisibWave heightAir tempDewpointWater temp
2017-Nov-19 23:47N 53°32' E 004°51'415.4
2017-Nov-19 23:30N 53°33' E 004°58'815.2
2017-Nov-19 23:00N 53°36' E 005°10'10413.1
2017-Nov-19 15:04N 54°01' E 008°01'112.4
2017-Nov-19 15:00N 54°01' E 008°02'714.4
2017-Nov-19 14:30N 54°00' E 008°15'816.0
2017-Nov-19 14:00N 53°59' E 008°28'714.0
2017-Nov-19 13:30N 53°56' E 008°39'612.0
2017-Nov-19 13:00N 53°52' E 008°45'612.3
2017-Nov-19 12:30N 53°51' E 008°55'612.2
2017-Nov-19 12:00N 53°52' E 009°05'3 5.1
2017-Nov-19 11:31N 53°54' E 009°09'0 0.0
2017-Nov-19 11:00N 53°54' E 009°09'2 4.4
2017-Nov-19 10:30N 53°55' E 009°12'4 8.4
2017-Nov-19 10:00N 53°58' E 009°16'4 8.5
2017-Nov-19 09:31N 54°02' E 009°18'5 8.7
2017-Nov-19 08:59N 54°07' E 009°20'4 8.0
2017-Nov-19 08:30N 54°10' E 009°24'4 8.7
2017-Nov-19 08:00N 54°11' E 009°31'2 4.7
2017-Nov-19 07:30N 54°13' E 009°35'3 6.3
2017-Nov-19 07:00N 54°15' E 009°37'4 7.7
2017-Nov-19 06:30N 54°18' E 009°42'4 8.0
2017-Nov-19 06:00N 54°21' E 009°46'4 7.7
2017-Nov-19 05:30N 54°21' E 009°53'23 5.5
2017-Nov-19 01:15N 54°33' E 010°28'414.9
2017-Nov-19 01:00N 54°34' E 010°34'714.8
2017-Nov-19 00:30N 54°35' E 010°47'714.7
2017-Nov-19 00:00N 54°36' E 010°60'714.1
2017-Nov-18 23:31N 54°35' E 011°12'714.7
2017-Nov-18 23:01N 54°32' E 011°23'714.6
2017-Nov-18 22:30N 54°29' E 011°35'814.4
2017-Nov-18 21:59N 54°27' E 011°47'714.4
2017-Nov-18 21:30N 54°27' E 011°59'713.9
2017-Nov-18 21:00N 54°27' E 012°11'713.0
2017-Nov-18 20:30N 54°33' E 012°18'20214.0
2017-Nov-18 06:04N 54°55' E 018°05'113.9
2017-Nov-18 06:00N 54°55' E 018°07'714.0
2017-Nov-18 05:30N 54°56' E 018°19'713.8
2017-Nov-18 05:00N 54°53' E 018°30'714.9
2017-Nov-18 04:30N 54°48' E 018°40'815.0
2017-Nov-18 04:01N 54°44' E 018°50'612.7
2017-Nov-18 03:31N 54°38' E 018°56'815.6
2017-Nov-18 03:00N 54°32' E 018°49'714.9
2017-Nov-18 02:30N 54°32' E 018°36'3 5.8
2017-Nov-18 01:58N 54°33' E 018°31'0 0.0
2017-Nov-18 01:28N 54°33' E 018°31'0 0.0
2017-Nov-18 00:58N 54°33' E 018°31'0 0.0
2017-Nov-18 00:25N 54°33' E 018°31'0 0.0
2017-Nov-17 23:58N 54°33' E 018°31'0 0.0
2017-Nov-17 23:28N 54°33' E 018°31'0 0.0
2017-Nov-17 22:58N 54°33' E 018°31'0 0.0
2017-Nov-17 22:28N 54°33' E 018°31'0 0.0
2017-Nov-17 21:58N 54°33' E 018°31'0 0.1
2017-Nov-17 21:28N 54°33' E 018°31'0 0.0
2017-Nov-17 20:58N 54°33' E 018°31'0 0.0
2017-Nov-17 20:28N 54°33' E 018°31'0 0.0
2017-Nov-17 19:58N 54°33' E 018°31'0 0.0
2017-Nov-17 19:28N 54°33' E 018°31'0 0.0
2017-Nov-17 18:58N 54°33' E 018°31'0 0.0
2017-Nov-17 18:28N 54°33' E 018°31'0 0.0
2017-Nov-17 17:58N 54°33' E 018°31'0 0.0
2017-Nov-17 17:25N 54°33' E 018°31'0 0.0
2017-Nov-17 16:58N 54°33' E 018°31'0 0.0
2017-Nov-17 16:28N 54°33' E 018°31'0 0.0
2017-Nov-17 15:58N 54°33' E 018°31'0 0.0
2017-Nov-17 15:28N 54°33' E 018°31'0 0.0
2017-Nov-17 14:58N 54°33' E 018°31'0 0.0
2017-Nov-17 14:28N 54°33' E 018°31'0 0.0
2017-Nov-17 13:58N 54°33' E 018°31'0 0.0
2017-Nov-17 13:30N 54°33' E 018°31'0 0.0
2017-Nov-17 13:00N 54°33' E 018°31'0 0.0
2017-Nov-17 12:30N 54°33' E 018°31'0 0.0
2017-Nov-17 12:00N 54°33' E 018°31'0 0.0
2017-Nov-17 11:30N 54°33' E 018°31'0 0.0
2017-Nov-17 11:00N 54°33' E 018°31'0 0.0
2017-Nov-17 10:30N 54°33' E 018°31'0 0.0
2017-Nov-17 10:00N 54°33' E 018°31'0 0.0
2017-Nov-17 09:30N 54°33' E 018°31'0 0.0
2017-Nov-17 08:57N 54°33' E 018°31'0 0.0
2017-Nov-17 08:30N 54°33' E 018°31'0 0.0
2017-Nov-17 08:00N 54°33' E 018°31'0 0.0
2017-Nov-16 23:45N 54°33' E 018°31'0 0.0
2017-Nov-16 23:30N 54°33' E 018°31'0 0.0
2017-Nov-16 23:01N 54°33' E 018°31'1 1.9
2017-Nov-16 22:30N 54°32' E 018°32'510.6
2017-Nov-16 22:00N 54°32' E 018°41'714.7
2017-Nov-16 21:30N 54°35' E 018°53'713.2
2017-Nov-16 21:01N 54°42' E 018°53'816.7
2017-Nov-16 20:31N 54°47' E 018°42'816.6
2017-Nov-16 20:01N 54°52' E 018°30'816.3
2017-Nov-16 19:30N 54°54' E 018°16'11316.7
2017-Nov-16 12:43N 54°39' E 015°02'516.6
2017-Nov-16 12:24N 54°38' E 014°52'616.8
2017-Nov-16 12:01N 54°37' E 014°41'916.7
2017-Nov-16 11:27N 54°36' E 014°25'716.3
2017-Nov-16 10:59N 54°38' E 014°13'2016.5
2017-Nov-16 09:45N 54°49' E 013°44'616.8
2017-Nov-16 09:25N 54°53' E 013°37'3116.5
2017-Nov-16 07:33N 55°13' E 012°56'116.7
2017-Nov-16 07:30N 55°13' E 012°55'714.9
2017-Nov-16 07:01N 55°17' E 012°43'5 9.7
2017-Nov-16 06:30N 55°21' E 012°39'611.6
2017-Nov-16 06:00N 55°27' E 012°41'510.9
2017-Nov-16 05:31N 55°32' E 012°42'510.0
2017-Nov-16 05:00N 55°37' E 012°42'612.3
2017-Nov-16 04:30N 55°44' E 012°41'713.8
2017-Nov-16 04:00N 55°50' E 012°41'713.9
2017-Nov-16 03:30N 55°57' E 012°39'5 9.2
2017-Nov-16 03:00N 56°02' E 012°41'0 0.3
2017-Nov-16 02:30N 56°02' E 012°42'0 0.0
2017-Nov-16 02:00N 56°02' E 012°42'0 0.0
2017-Nov-16 01:30N 56°02' E 012°42'0 0.0
2017-Nov-16 01:00N 56°02' E 012°42'0 0.0
2017-Nov-16 00:30N 56°02' E 012°41'0 0.0
2017-Nov-16 00:00N 56°02' E 012°42'0 0.0
2017-Nov-15 23:30N 56°02' E 012°42'0 0.0
2017-Nov-15 23:00N 56°02' E 012°42'0 0.0
2017-Nov-15 22:30N 56°02' E 012°42'0 0.0
2017-Nov-15 22:00N 56°02' E 012°42'0 0.0
2017-Nov-15 21:30N 56°02' E 012°42'0 0.0
2017-Nov-15 21:00N 56°02' E 012°42'0 0.0
2017-Nov-15 20:30N 56°02' E 012°42'0 0.0
2017-Nov-15 20:00N 56°02' E 012°42'0 0.0
2017-Nov-15 19:30N 56°02' E 012°42'0 0.0
2017-Nov-15 19:00N 56°02' E 012°41'0 0.0
2017-Nov-15 18:30N 56°02' E 012°42'0 0.0
2017-Nov-15 18:00N 56°02' E 012°41'0 0.0
2017-Nov-15 17:30N 56°02' E 012°42'0 0.0
2017-Nov-15 17:00N 56°02' E 012°42'0 0.0
2017-Nov-15 16:30N 56°02' E 012°41'0 0.0
2017-Nov-15 16:00N 56°02' E 012°42'0 0.0
2017-Nov-15 15:30N 56°02' E 012°42'0 0.0
2017-Nov-15 15:00N 56°02' E 012°42'0 0.0
2017-Nov-15 14:30N 56°02' E 012°42'0 0.0
2017-Nov-15 14:00N 56°02' E 012°42'0 0.0
2017-Nov-15 13:30N 56°02' E 012°42'0 0.0
2017-Nov-15 13:00N 56°02' E 012°41'0 0.0
2017-Nov-15 12:30N 56°02' E 012°42'0 0.0
2017-Nov-15 12:00N 56°02' E 012°42'0 0.0
2017-Nov-15 11:30N 56°02' E 012°41'0 0.0
2017-Nov-15 11:00N 56°02' E 012°42'0 0.0
2017-Nov-15 10:30N 56°02' E 012°42'0 0.0
2017-Nov-15 10:00N 56°02' E 012°42'0 0.0
2017-Nov-15 09:30N 56°02' E 012°42'0 0.0
2017-Nov-15 09:00N 56°02' E 012°42'0 0.0
2017-Nov-15 08:30N 56°02' E 012°42'0 0.0
2017-Nov-15 08:00N 56°02' E 012°42'0 0.0
2017-Nov-15 07:30N 56°02' E 012°42'0 0.0
2017-Nov-15 07:00N 56°02' E 012°42'0 0.0
2017-Nov-15 06:29N 56°02' E 012°42'0 1.0
2017-Nov-15 06:01N 56°01' E 012°42'3 6.2
2017-Nov-15 05:30N 56°04' E 012°38'714.2
2017-Nov-15 05:00N 56°08' E 012°28'7215.6
2017-Nov-15 00:23N 57°14' E 011°33'616.2
2017-Nov-15 00:00N 57°19' E 011°29'816.4
2017-Nov-14 23:30N 57°27' E 011°23'816.2
2017-Nov-14 23:00N 57°33' E 011°13'916.9
2017-Nov-14 22:29N 57°39' E 011°01'816.9
2017-Nov-14 22:00N 57°45' E 010°50'715.0
2017-Nov-14 21:30N 57°47' E 010°37'815.6
2017-Nov-14 21:00N 57°45' E 010°23'816.5
2017-Nov-14 20:30N 57°41' E 010°08'17415.8
2017-Nov-14 09:31N 55°31' E 006°39'015.3
2017-Nov-14 09:30N 55°31' E 006°39'1215.5
2017-Nov-14 08:44N 55°21' E 006°28'15015.7
2017-Nov-13 23:10N 53°07' E 004°31'316.0
2017-Nov-13 23:00N 53°05' E 004°29'815.9
2017-Nov-13 22:30N 52°58' E 004°22'815.6
2017-Nov-13 22:00N 52°52' E 004°15'167 8.4
2017-Nov-13 02:01N 51°28' E 000°20'0 0.0
2017-Nov-13 01:31N 51°28' E 000°20'0 0.0
2017-Nov-13 01:01N 51°28' E 000°20'0 0.0
2017-Nov-13 00:31N 51°28' E 000°20'0 0.0
2017-Nov-13 00:01N 51°28' E 000°20'0 0.0
2017-Nov-12 23:31N 51°28' E 000°20'0 0.0
2017-Nov-12 23:01N 51°28' E 000°20'0 0.1
2017-Nov-12 22:31N 51°28' E 000°20'0 0.1
2017-Nov-12 22:01N 51°28' E 000°20'0 0.0
2017-Nov-12 21:31N 51°28' E 000°20'0 0.0
2017-Nov-12 21:01N 51°28' E 000°20'0 0.0
2017-Nov-12 20:31N 51°28' E 000°20'22 1.7
2017-Nov-12 07:51N 51°29' E 000°55'3 7.8
2017-Nov-12 07:31N 51°29' E 000°59'611.2
2017-Nov-12 06:59N 51°29' E 001°09'611.7
2017-Nov-12 06:29N 51°29' E 001°18'612.0
2017-Nov-12 06:01N 51°28' E 001°27'510.8
2017-Nov-12 05:31N 51°24' E 001°33'510.4
2017-Nov-12 05:01N 51°19' E 001°36'611.0
2017-Nov-12 04:30N 51°13' E 001°38'510.1
2017-Nov-12 04:00N 51°09' E 001°41'510.3
2017-Nov-12 03:31N 51°05' E 001°37'611.2
2017-Nov-12 03:00N 51°00' E 001°32'610.9
2017-Nov-12 02:30N 50°56' E 001°26'510.7
2017-Nov-12 02:00N 50°51' E 001°24'610.8
2017-Nov-12 01:26N 50°45' E 001°22'4411.0
2017-Nov-11 21:29N 50°24' E 000°21'612.1
2017-Nov-11 21:00N 50°23' E 000°13'612.3
2017-Nov-11 20:30N 50°21' E 000°03'613.1
2017-Nov-11 20:01N 50°19' W 000°07'2613.7
2017-Nov-11 18:05N 50°12' W 000°46'214.2
2017-Nov-11 17:56N 50°11' W 000°49'614.6
2017-Nov-11 17:30N 50°09' W 000°59'714.8
2017-Nov-11 17:01N 50°07' W 001°10'815.5
2017-Nov-11 16:30N 50°05' W 001°21'816.1
2017-Nov-11 16:00N 50°02' W 001°33'816.6
2017-Nov-11 15:31N 50°00' W 001°46'917.1
2017-Nov-11 15:01N 49°58' W 001°58'917.4
2017-Nov-11 14:30N 49°56' W 002°12'2417.1
2017-Nov-11 13:05N 49°49' W 002°48'316.5
2017-Nov-11 12:55N 49°48' W 002°52'1016.2
2017-Nov-11 12:18N 49°43' W 003°04'7515.7
2017-Nov-11 07:32N 49°05' W 004°44'115.0
2017-Nov-11 07:26N 49°04' W 004°46'1315.2
2017-Nov-11 06:34N 48°57' W 005°04'315.1
2017-Nov-11 06:24N 48°56' W 005°07'615.0
2017-Nov-11 05:59N 48°53' W 005°15'714.9
2017-Nov-11 05:30N 48°49' W 005°25'714.7
2017-Nov-11 05:00N 48°46' W 005°34'1113.9
2017-Nov-11 04:14N 48°36' W 005°42'512.8
2017-Nov-11 03:51N 48°31' W 005°42'614.2
2017-Nov-11 03:27N 48°26' W 005°39'713.8
2017-Nov-11 02:57N 48°20' W 005°35'713.8
2017-Nov-11 02:29N 48°14' W 005°32'613.5
2017-Nov-11 02:00N 48°08' W 005°28'713.6
2017-Nov-11 01:30N 48°01' W 005°25'713.7
2017-Nov-11 00:59N 47°55' W 005°21'713.7
2017-Nov-11 00:30N 47°49' W 005°17'714.0
2017-Nov-11 00:00N 47°42' W 005°13'713.9
2017-Nov-10 23:30N 47°35' W 005°11'714.0
2017-Nov-10 23:00N 47°29' W 005°07'21414.3
2017-Nov-10 08:03N 44°07' W 003°27'114.8
2017-Nov-10 08:00N 44°06' W 003°27'814.9
2017-Nov-10 07:29N 43°59' W 003°23'715.1
2017-Nov-10 07:00N 43°52' W 003°19'714.9
2017-Nov-10 06:30N 43°45' W 003°16'714.9
2017-Nov-10 06:00N 43°38' W 003°12'715.0
2017-Nov-10 05:30N 43°31' W 003°09'815.1
2017-Nov-10 05:01N 43°24' W 003°06'4 7.6
2017-Nov-10 04:29N 43°21' W 003°03'0 0.0
2017-Nov-10 03:59N 43°21' W 003°03'0 0.0
2017-Nov-10 03:29N 43°21' W 003°03'0 0.0
2017-Nov-10 02:59N 43°21' W 003°03'0 0.0
2017-Nov-10 02:29N 43°21' W 003°03'0 0.0
2017-Nov-10 01:59N 43°21' W 003°03'0 0.0
2017-Nov-10 01:29N 43°21' W 003°03'0 0.0
2017-Nov-10 00:59N 43°21' W 003°03'0 0.0
2017-Nov-10 00:26N 43°21' W 003°03'0 0.0
2017-Nov-09 23:59N 43°21' W 003°03'  

Dump ship's entire track history